Time;durP1;ratioP1;P1;durP2;ratioP2;P2;SDS_P1;SDS_P2;PMS_P1;PMS_P2;Temp;Humidity;BMP_temperature;BMP_pressure;BME280_temperature;BME280_humidity;BME280_pressure;Samples;Min_cycle;Max_cycle;Signal;HPM_P1;HPM_P2
2021/01/02 00:00:16;;;;;;;;;;;11.40;53.90;;;;;;2596075;22;19919;-75
2021/01/02 00:01:18;;;;;;;;;;;11.40;54.40;;;;;;2596113;22;20320;-76
2021/01/02 00:02:26;;;;;;;;;;;11.40;54.30;;;;;;2595800;22;19927;-75
2021/01/02 00:03:48;;;;;;;;;;;11.40;54.20;;;;;;2596262;22;20151;-76
2021/01/02 00:05:04;;;;;;;;;;;11.50;54.10;;;;;;2595944;22;19919;-76
2021/01/02 00:06:07;;;;;;;;;;;11.50;54.10;;;;;;2596240;22;19926;-76
2021/01/02 00:07:27;;;;;;;;;;;11.60;53.70;;;;;;2595920;22;19927;-75
2021/01/02 00:08:30;;;;;;;;;;;11.50;53.60;;;;;;2595690;22;20247;-75
2021/01/02 00:09:32;;;;;;;;;;;11.50;53.70;;;;;;2596012;22;19942;-75
2021/01/02 00:10:37;;;;;;;;;;;11.50;53.70;;;;;;2596497;22;19923;-75
2021/01/02 00:11:50;;;;;;;;;;;11.50;53.60;;;;;;2596692;22;19919;-76
2021/01/02 00:12:59;;;;;;;;;;;11.50;54.00;;;;;;2596760;22;19923;-76
2021/01/02 00:14:10;;;;;;;;;;;11.50;54.00;;;;;;2596503;22;20307;-76
2021/01/02 00:15:16;;;;;;;;;;;11.50;54.00;;;;;;2595945;22;20287;-75
2021/01/02 00:16:35;;;;;;;;;;;11.50;53.90;;;;;;2596352;22;20154;-75
2021/01/02 00:17:50;;;;;;;;;;;11.50;54.00;;;;;;2544522;23;20001;-75
2021/01/02 00:19:01;;;;;;;;;;;11.40;53.90;;;;;;2596304;22;19920;-76
2021/01/02 00:20:05;;;;;;;;;;;11.40;53.80;;;;;;2596784;22;20017;-75
2021/01/02 00:21:17;;;;;;;;;;;11.40;53.80;;;;;;2596658;22;19927;-75
2021/01/02 00:22:29;;;;;;;;;;;11.40;54.00;;;;;;2596739;22;19926;-76
2021/01/02 00:23:46;;;;;;;;;;;11.40;54.00;;;;;;2598977;22;19919;-75
2021/01/02 00:24:51;;;;;;;;;;;11.40;53.50;;;;;;2599323;22;19926;-76
2021/01/02 00:25:56;;;;;;;;;;;11.30;54.20;;;;;;2600037;22;19919;-77
2021/01/02 00:27:05;;;;;;;;;;;11.30;54.00;;;;;;2600334;22;19927;-76
2021/01/02 00:28:16;;;;;;;;;;;11.30;54.10;;;;;;2600232;22;19919;-76
2021/01/02 00:29:20;;;;;;;;;;;11.20;52.90;;;;;;2600105;22;19919;-76
2021/01/02 00:30:33;;;;;;;;;;;11.20;54.60;;;;;;2600446;22;19920;-76
2021/01/02 00:31:53;;;;;;;;;;;11.20;54.50;;;;;;2600186;22;19931;-76
2021/01/02 00:33:05;;;;;;;;;;;11.10;54.40;;;;;;2598673;22;19919;-76
2021/01/02 00:34:21;;;;;;;;;;;11.10;53.50;;;;;;2600138;22;19919;-75
2021/01/02 00:35:23;;;;;;;;;;;11.00;54.90;;;;;;2595571;22;19919;-77
2021/01/02 00:36:30;;;;;;;;;;;10.90;54.30;;;;;;2600116;22;19930;-76
2021/01/02 00:37:35;;;;;;;;;;;10.70;53.20;;;;;;2599437;22;19919;-76
2021/01/02 00:38:41;;;;;;;;;;;10.70;55.50;;;;;;2599305;22;19949;-76
2021/01/02 00:39:47;;;;;;;;;;;10.80;55.80;;;;;;2599234;22;19919;-76
2021/01/02 00:40:49;;;;;;;;;;;10.80;54.60;;;;;;2598789;22;19926;-76
2021/01/02 00:41:51;;;;;;;;;;;10.80;55.60;;;;;;2599196;22;19919;-75
2021/01/02 00:42:52;;;;;;;;;;;10.80;55.70;;;;;;2599811;22;19933;-76
2021/01/02 00:43:54;;;;;;;;;;;10.80;55.50;;;;;;2599348;22;19942;-76
2021/01/02 00:44:57;;;;;;;;;;;10.90;55.00;;;;;;2599211;22;19926;-76
2021/01/02 00:45:59;;;;;;;;;;;10.90;55.20;;;;;;2598790;22;19920;-75
2021/01/02 00:47:02;;;;;;;;;;;10.80;55.10;;;;;;2598827;22;19919;-77
2021/01/02 00:48:04;;;;;;;;;;;10.90;55.80;;;;;;2585352;23;19920;-76
2021/01/02 00:49:07;;;;;;;;;;;10.80;55.50;;;;;;2585478;22;19919;-77
2021/01/02 00:50:09;;;;;;;;;;;10.90;55.10;;;;;;2584963;23;19927;-75
2021/01/02 00:51:11;;;;;;;;;;;10.90;55.00;;;;;;2584750;22;20333;-76
2021/01/02 00:52:18;;;;;;;;;;;10.90;54.90;;;;;;2598402;22;19919;-76
2021/01/02 00:53:32;;;;;;;;;;;10.90;55.60;;;;;;2597314;22;19919;-76
2021/01/02 00:54:39;;;;;;;;;;;10.90;55.10;;;;;;2597489;22;19930;-76
2021/01/02 00:55:59;;;;;;;;;;;10.90;55.30;;;;;;2597651;22;19923;-75
2021/01/02 00:57:02;;;;;;;;;;;10.90;55.40;;;;;;2597410;22;19923;-75
2021/01/02 00:58:05;;;;;;;;;;;10.80;54.90;;;;;;2596872;22;19943;-76
2021/01/02 00:59:33;;;;;;;;;;;10.80;55.50;;;;;;2596644;22;19919;-75
2021/01/02 01:00:37;;;;;;;;;;;10.80;55.00;;;;;;2596601;22;19926;-76
2021/01/02 01:01:43;;;;;;;;;;;10.70;55.50;;;;;;2596382;22;19919;-76
2021/01/02 01:03:02;;;;;;;;;;;10.60;55.10;;;;;;2596435;22;20352;-75
2021/01/02 01:04:16;;;;;;;;;;;10.60;55.00;;;;;;2596551;22;19920;-76
2021/01/02 01:05:19;;;;;;;;;;;10.60;56.10;;;;;;2582214;23;19919;-75
2021/01/02 01:06:23;;;;;;;;;;;10.60;56.00;;;;;;2583107;22;19920;-75
2021/01/02 01:07:26;;;;;;;;;;;10.50;55.70;;;;;;2595700;22;19926;-76
2021/01/02 01:08:31;;;;;;;;;;;10.60;56.30;;;;;;2595893;22;19919;-76
2021/01/02 01:09:39;;;;;;;;;;;10.60;56.00;;;;;;2595595;22;19926;-75
2021/01/02 01:10:41;;;;;;;;;;;10.70;55.90;;;;;;2595489;22;19923;-76
2021/01/02 01:11:45;;;;;;;;;;;10.70;55.70;;;;;;2595507;22;20313;-75
2021/01/02 01:12:53;;;;;;;;;;;10.60;55.70;;;;;;2595457;22;19919;-76
2021/01/02 01:13:55;;;;;;;;;;;10.70;56.00;;;;;;2595440;22;20273;-75
2021/01/02 01:14:56;;;;;;;;;;;10.70;55.80;;;;;;2595340;22;20264;-78
2021/01/02 01:16:00;;;;;;;;;;;10.70;55.90;;;;;;2581874;23;19920;-77
2021/01/02 01:17:02;;;;;;;;;;;10.80;55.70;;;;;;2582779;22;19931;-77
2021/01/02 01:18:24;;;;;;;;;;;10.90;55.70;;;;;;2595221;22;19919;-75
2021/01/02 01:19:28;;;;;;;;;;;10.90;55.50;;;;;;2585051;22;19919;-76
2021/01/02 01:20:30;;;;;;;;;;;10.90;55.30;;;;;;2595180;22;20355;-75
2021/01/02 01:21:34;;;;;;;;;;;11.00;55.20;;;;;;2596314;22;19919;-76
2021/01/02 01:22:41;;;;;;;;;;;11.00;55.10;;;;;;2596143;22;20221;-75
2021/01/02 01:23:55;;;;;;;;;;;11.00;54.90;;;;;;2596474;22;19930;-75
2021/01/02 01:25:00;;;;;;;;;;;11.00;54.60;;;;;;2596248;22;19926;-75
2021/01/02 01:26:16;;;;;;;;;;;11.10;54.90;;;;;;2582596;23;19923;-75
2021/01/02 01:27:26;;;;;;;;;;;11.10;54.80;;;;;;2585899;22;19920;-76
2021/01/02 01:28:30;;;;;;;;;;;11.20;54.50;;;;;;2596317;22;19919;-77
2021/01/02 01:29:39;;;;;;;;;;;11.20;54.40;;;;;;2596299;22;19919;-78
2021/01/02 01:30:41;;;;;;;;;;;11.20;54.40;;;;;;2583061;23;19947;-75
2021/01/02 01:31:45;;;;;;;;;;;11.10;54.20;;;;;;2570726;23;19927;-76
2021/01/02 01:32:58;;;;;;;;;;;11.20;54.30;;;;;;2583255;22;20329;-76
2021/01/02 01:34:04;;;;;;;;;;;11.10;54.30;;;;;;2596255;22;19972;-76
2021/01/02 01:35:06;;;;;;;;;;;11.20;54.20;;;;;;2596439;22;19930;-77
2021/01/02 01:36:09;;;;;;;;;;;11.10;54.10;;;;;;2596263;22;19920;-76
2021/01/02 01:37:13;;;;;;;;;;;11.20;54.50;;;;;;2596175;22;20268;-77
2021/01/02 01:38:16;;;;;;;;;;;11.20;54.30;;;;;;2596127;22;19923;-76
2021/01/02 01:39:19;;;;;;;;;;;11.20;54.30;;;;;;2596124;22;19919;-75
2021/01/02 01:40:22;;;;;;;;;;;11.20;54.10;;;;;;2596216;22;19929;-76
2021/01/02 01:41:32;;;;;;;;;;;11.20;54.00;;;;;;2596410;22;19946;-77
2021/01/02 01:42:38;;;;;;;;;;;11.20;54.10;;;;;;2596026;22;19919;-75
2021/01/02 01:44:14;;;;;;;;;;;11.20;54.10;;;;;;2582789;23;19930;-76
2021/01/02 01:45:33;;;;;;;;;;;11.20;54.10;;;;;;2577412;23;19927;-78
2021/01/02 01:46:36;;;;;;;;;;;11.30;54.10;;;;;;2586795;22;19924;-75
2021/01/02 01:47:40;;;;;;;;;;;11.30;53.60;;;;;;2596369;22;19920;-76
2021/01/02 01:48:53;;;;;;;;;;;11.30;53.70;;;;;;2596419;22;19923;-75
2021/01/02 01:50:18;;;;;;;;;;;11.30;53.60;;;;;;2596071;22;19919;-75
2021/01/02 01:51:28;;;;;;;;;;;11.30;53.90;;;;;;2595999;22;19919;-77
2021/01/02 01:52:36;;;;;;;;;;;11.30;53.80;;;;;;2596099;22;19938;-76
2021/01/02 01:53:57;;;;;;;;;;;11.30;53.90;;;;;;2595851;22;20315;-75
2021/01/02 01:55:04;;;;;;;;;;;11.30;53.80;;;;;;2582737;23;20182;-76
2021/01/02 01:56:13;;;;;;;;;;;11.40;53.80;;;;;;2584017;22;20329;-76
2021/01/02 01:57:20;;;;;;;;;;;11.30;53.50;;;;;;2595957;22;19950;-75
2021/01/02 01:58:36;;;;;;;;;;;11.30;53.70;;;;;;2596068;22;20061;-76
2021/01/02 01:59:54;;;;;;;;;;;11.30;53.70;;;;;;2595986;22;19920;-76
2021/01/02 02:01:01;;;;;;;;;;;11.30;53.80;;;;;;2596038;22;19939;-76
2021/01/02 02:02:13;;;;;;;;;;;11.20;53.90;;;;;;2595835;22;19931;-77
2021/01/02 02:03:22;;;;;;;;;;;11.30;53.80;;;;;;2595931;22;19957;-77
2021/01/02 02:04:44;;;;;;;;;;;11.30;53.70;;;;;;2595981;22;20284;-76
2021/01/02 02:06:04;;;;;;;;;;;11.30;53.60;;;;;;2585588;22;19919;-75
2021/01/02 02:07:13;;;;;;;;;;;11.30;53.70;;;;;;2596053;22;19926;-75
2021/01/02 02:08:14;;;;;;;;;;;11.20;53.70;;;;;;2596025;22;19919;-76
2021/01/02 02:09:19;;;;;;;;;;;11.20;53.60;;;;;;2596027;22;19943;-77
2021/01/02 02:10:26;;;;;;;;;;;11.20;53.70;;;;;;2596062;22;19919;-76
2021/01/02 02:11:43;;;;;;;;;;;11.20;53.80;;;;;;2596384;22;19924;-75
2021/01/02 02:12:50;;;;;;;;;;;11.30;54.00;;;;;;2596075;22;19926;-76
2021/01/02 02:13:59;;;;;;;;;;;11.30;53.70;;;;;;2596087;22;19930;-75
2021/01/02 02:15:10;;;;;;;;;;;11.30;53.60;;;;;;2596057;22;19926;-76
2021/01/02 02:16:12;;;;;;;;;;;11.30;53.70;;;;;;2582467;23;20281;-75
2021/01/02 02:17:16;;;;;;;;;;;11.30;53.70;;;;;;2582681;22;20230;-75
2021/01/02 02:18:18;;;;;;;;;;;11.30;53.50;;;;;;2582495;23;19919;-75
2021/01/02 02:19:46;;;;;;;;;;;11.30;53.70;;;;;;2582878;22;19919;-75
2021/01/02 02:20:49;;;;;;;;;;;11.20;53.70;;;;;;2595969;22;20013;-75
2021/01/02 02:21:55;;;;;;;;;;;11.00;53.00;;;;;;2582167;23;20372;-76
2021/01/02 02:23:01;;;;;;;;;;;10.90;53.60;;;;;;2583916;22;19919;-75
2021/01/02 02:24:03;;;;;;;;;;;10.90;54.30;;;;;;2595745;22;19924;-76
2021/01/02 02:25:07;;;;;;;;;;;10.90;54.60;;;;;;2595889;22;20240;-76
2021/01/02 02:26:15;;;;;;;;;;;11.00;54.60;;;;;;2596006;22;19926;-75
2021/01/02 02:27:22;;;;;;;;;;;11.00;54.60;;;;;;2595802;22;19919;-77
2021/01/02 02:28:37;;;;;;;;;;;11.10;54.10;;;;;;2595995;22;19938;-75
2021/01/02 02:29:45;;;;;;;;;;;11.10;54.20;;;;;;2595534;22;20245;-75
2021/01/02 02:30:48;;;;;;;;;;;11.00;54.30;;;;;;2595859;22;19919;-75
2021/01/02 02:31:50;;;;;;;;;;;10.90;53.30;;;;;;2596116;22;19926;-75
2021/01/02 02:32:51;;;;;;;;;;;10.90;54.70;;;;;;2595068;22;19919;-75
2021/01/02 02:33:53;;;;;;;;;;;10.90;54.60;;;;;;2595997;22;19927;-75
2021/01/02 02:34:57;;;;;;;;;;;11.00;54.40;;;;;;2595808;22;19946;-75
2021/01/02 02:35:59;;;;;;;;;;;11.00;54.50;;;;;;2582259;23;19920;-75
2021/01/02 02:37:01;;;;;;;;;;;11.00;54.50;;;;;;2582859;22;20341;-74
2021/01/02 02:38:03;;;;;;;;;;;11.00;54.30;;;;;;2596108;22;20158;-76
2021/01/02 02:39:06;;;;;;;;;;;11.00;54.10;;;;;;2596108;22;19920;-76
2021/01/02 02:40:08;;;;;;;;;;;11.10;54.20;;;;;;2595849;22;19927;-74
2021/01/02 02:41:09;;;;;;;;;;;11.00;54.10;;;;;;2582333;23;19919;-75
2021/01/02 02:42:11;;;;;;;;;;;11.00;54.20;;;;;;2582822;22;20277;-75
2021/01/02 02:43:14;;;;;;;;;;;11.10;54.30;;;;;;2595833;22;19926;-75
2021/01/02 02:44:16;;;;;;;;;;;11.10;54.20;;;;;;2582458;23;19927;-75
2021/01/02 02:45:18;;;;;;;;;;;11.10;54.20;;;;;;2582976;22;19927;-76
2021/01/02 02:46:20;;;;;;;;;;;11.00;53.40;;;;;;2582341;23;19920;-75
2021/01/02 02:47:23;;;;;;;;;;;11.00;54.10;;;;;;2582637;22;19920;-75
2021/01/02 02:48:25;;;;;;;;;;;11.00;52.80;;;;;;2595929;22;19942;-75
2021/01/02 02:49:30;;;;;;;;;;;10.80;53.00;;;;;;2595790;22;19919;-76
2021/01/02 02:50:33;;;;;;;;;;;10.80;54.70;;;;;;2595978;22;19923;-75
2021/01/02 02:51:41;;;;;;;;;;;10.70;54.50;;;;;;2595810;22;19946;-74
2021/01/02 02:52:43;;;;;;;;;;;10.70;54.70;;;;;;2595875;22;19919;-76
2021/01/02 02:53:46;;;;;;;;;;;10.60;54.30;;;;;;2596151;22;19920;-75
2021/01/02 02:54:48;;;;;;;;;;;10.50;54.70;;;;;;2595833;22;20244;-75
2021/01/02 02:55:50;;;;;;;;;;;10.40;54.10;;;;;;2595597;22;20391;-75
2021/01/02 02:56:51;;;;;;;;;;;10.40;55.60;;;;;;2595757;22;20444;-75
2021/01/02 02:57:52;;;;;;;;;;;10.40;54.40;;;;;;2595845;22;19930;-75
2021/01/02 02:58:54;;;;;;;;;;;10.30;54.70;;;;;;2595891;22;19920;-75
2021/01/02 02:59:56;;;;;;;;;;;10.30;55.90;;;;;;2595872;22;19926;-75
2021/01/02 03:00:57;;;;;;;;;;;10.30;55.30;;;;;;2596079;22;19920;-76
2021/01/02 03:02:00;;;;;;;;;;;10.30;56.10;;;;;;2584168;23;19982;-75
2021/01/02 03:03:02;;;;;;;;;;;10.20;55.90;;;;;;2584701;22;19930;-74
2021/01/02 03:04:03;;;;;;;;;;;10.20;56.10;;;;;;2599512;22;19919;-75
2021/01/02 03:05:07;;;;;;;;;;;10.20;55.60;;;;;;2599250;22;19923;-75
2021/01/02 03:06:10;;;;;;;;;;;10.10;56.20;;;;;;2599897;22;19919;-77
2021/01/02 03:07:11;;;;;;;;;;;10.20;56.60;;;;;;2599521;22;19919;-74
2021/01/02 03:08:13;;;;;;;;;;;10.20;56.30;;;;;;2599511;22;19919;-75
2021/01/02 03:09:15;;;;;;;;;;;10.30;55.90;;;;;;2599931;22;19919;-75
2021/01/02 03:10:17;;;;;;;;;;;10.30;55.60;;;;;;2599019;22;19919;-75
2021/01/02 03:11:20;;;;;;;;;;;10.30;56.30;;;;;;2597863;22;19923;-75
2021/01/02 03:12:22;;;;;;;;;;;10.40;56.20;;;;;;2598328;22;19923;-74
2021/01/02 03:13:23;;;;;;;;;;;10.40;56.00;;;;;;2597352;22;19919;-75
2021/01/02 03:14:25;;;;;;;;;;;10.50;55.90;;;;;;2596876;22;19923;-75
2021/01/02 03:15:26;;;;;;;;;;;10.40;55.60;;;;;;2596387;22;19943;-75
2021/01/02 03:16:28;;;;;;;;;;;10.40;55.90;;;;;;2596742;22;19919;-75
2021/01/02 03:17:29;;;;;;;;;;;10.40;55.70;;;;;;2596274;22;19930;-74
2021/01/02 03:18:31;;;;;;;;;;;10.50;55.80;;;;;;2596576;22;20276;-75
2021/01/02 03:19:32;;;;;;;;;;;10.60;55.50;;;;;;2596598;22;19924;-75
2021/01/02 03:20:34;;;;;;;;;;;10.60;55.50;;;;;;2596729;22;20160;-75
2021/01/02 03:21:37;;;;;;;;;;;10.60;55.20;;;;;;2596517;22;19926;-75
2021/01/02 03:22:39;;;;;;;;;;;10.60;55.50;;;;;;2595796;22;19926;-74
2021/01/02 03:23:42;;;;;;;;;;;10.70;55.40;;;;;;2596205;22;19926;-75
2021/01/02 03:24:43;;;;;;;;;;;10.70;55.20;;;;;;2582556;23;19920;-75
2021/01/02 03:25:44;;;;;;;;;;;10.70;55.20;;;;;;2583486;23;19919;-75
2021/01/02 03:26:46;;;;;;;;;;;10.70;55.80;;;;;;2584028;22;19971;-75
2021/01/02 03:27:51;;;;;;;;;;;10.70;55.00;;;;;;2595876;22;20337;-76
2021/01/02 03:28:52;;;;;;;;;;;10.70;55.00;;;;;;2595522;22;19919;-75
2021/01/02 03:29:54;;;;;;;;;;;10.60;55.00;;;;;;2595555;22;19943;-75
2021/01/02 03:30:55;;;;;;;;;;;10.70;55.10;;;;;;2595750;22;19919;-75
2021/01/02 03:31:57;;;;;;;;;;;10.70;54.90;;;;;;2595992;22;19927;-75
2021/01/02 03:33:00;;;;;;;;;;;10.70;55.00;;;;;;2595581;22;19950;-75
2021/01/02 03:34:01;;;;;;;;;;;10.70;55.00;;;;;;2595735;22;19926;-75
2021/01/02 03:35:05;;;;;;;;;;;10.70;54.40;;;;;;2582386;23;19920;-75
2021/01/02 03:36:06;;;;;;;;;;;10.70;55.10;;;;;;2583108;22;19920;-75
2021/01/02 03:37:09;;;;;;;;;;;10.80;54.90;;;;;;2582005;23;20341;-75
2021/01/02 03:38:10;;;;;;;;;;;10.80;54.60;;;;;;2582373;22;20333;-75
2021/01/02 03:39:12;;;;;;;;;;;10.80;54.50;;;;;;2595515;22;19923;-75
2021/01/02 03:40:14;;;;;;;;;;;10.80;54.70;;;;;;2595448;22;20272;-76
2021/01/02 03:41:15;;;;;;;;;;;10.80;54.90;;;;;;2595697;22;19931;-76
2021/01/02 03:42:17;;;;;;;;;;;10.80;54.80;;;;;;2595415;22;20369;-77
2021/01/02 03:43:18;;;;;;;;;;;10.80;54.50;;;;;;2595669;22;19919;-75
2021/01/02 03:44:19;;;;;;;;;;;10.90;54.60;;;;;;2595534;22;20372;-75
2021/01/02 03:45:22;;;;;;;;;;;10.90;54.50;;;;;;2595431;22;19920;-75
2021/01/02 03:46:27;;;;;;;;;;;10.90;54.50;;;;;;2595745;22;19972;-75
2021/01/02 03:47:28;;;;;;;;;;;10.90;54.40;;;;;;2595529;22;19923;-75
2021/01/02 03:48:30;;;;;;;;;;;10.90;54.10;;;;;;2595466;22;20321;-75
2021/01/02 03:49:31;;;;;;;;;;;10.80;53.90;;;;;;2595535;22;19945;-75
2021/01/02 03:50:32;;;;;;;;;;;10.90;54.30;;;;;;2595384;22;19920;-75
2021/01/02 03:51:34;;;;;;;;;;;10.90;54.40;;;;;;2582132;23;19994;-75
2021/01/02 03:52:37;;;;;;;;;;;10.90;54.10;;;;;;2572084;23;19920;-74
2021/01/02 03:53:38;;;;;;;;;;;10.90;54.20;;;;;;2585150;22;20214;-77
2021/01/02 03:54:40;;;;;;;;;;;11.00;54.10;;;;;;2584243;23;19924;-76
2021/01/02 03:55:41;;;;;;;;;;;11.00;53.90;;;;;;2584525;22;19927;-75
2021/01/02 03:56:43;;;;;;;;;;;10.90;53.80;;;;;;2597561;22;19927;-76
2021/01/02 03:57:44;;;;;;;;;;;11.00;54.00;;;;;;2582824;23;19919;-75
2021/01/02 03:58:45;;;;;;;;;;;10.90;53.80;;;;;;2582780;22;19920;-75
2021/01/02 03:59:47;;;;;;;;;;;11.00;54.10;;;;;;2596212;22;19919;-74
2021/01/02 04:00:48;;;;;;;;;;;11.00;53.90;;;;;;2596481;22;19919;-75
2021/01/02 04:01:53;;;;;;;;;;;11.00;53.70;;;;;;2596718;22;20175;-75
2021/01/02 04:02:55;;;;;;;;;;;11.00;53.70;;;;;;2595685;22;19920;-76
2021/01/02 04:03:57;;;;;;;;;;;11.00;53.70;;;;;;2595592;22;19919;-74
2021/01/02 04:04:59;;;;;;;;;;;10.90;53.50;;;;;;2595789;22;19928;-74
2021/01/02 04:06:00;;;;;;;;;;;10.90;53.90;;;;;;2595974;22;19919;-75
2021/01/02 04:07:02;;;;;;;;;;;10.90;54.00;;;;;;2595831;22;19946;-75
2021/01/02 04:08:05;;;;;;;;;;;10.90;54.10;;;;;;2595824;22;19919;-75
2021/01/02 04:09:06;;;;;;;;;;;10.90;54.20;;;;;;2582511;23;20281;-74
2021/01/02 04:10:08;;;;;;;;;;;10.90;54.00;;;;;;2582533;22;19954;-75
2021/01/02 04:11:10;;;;;;;;;;;10.90;53.90;;;;;;2595738;22;20154;-75
2021/01/02 04:12:11;;;;;;;;;;;10.90;54.00;;;;;;2595568;22;19923;-75
2021/01/02 04:13:13;;;;;;;;;;;11.00;54.00;;;;;;2595849;22;19920;-75
2021/01/02 04:14:14;;;;;;;;;;;10.90;52.80;;;;;;2595937;22;19926;-74
2021/01/02 04:15:16;;;;;;;;;;;10.90;54.00;;;;;;2596511;22;20185;-75
2021/01/02 04:16:17;;;;;;;;;;;10.90;53.80;;;;;;2596619;22;19919;-74
2021/01/02 04:17:19;;;;;;;;;;;10.80;52.90;;;;;;2596865;22;19926;-74
2021/01/02 04:18:20;;;;;;;;;;;10.80;53.90;;;;;;2583654;23;20301;-75
2021/01/02 04:19:22;;;;;;;;;;;10.70;53.90;;;;;;2571536;23;19973;-76
2021/01/02 04:20:26;;;;;;;;;;;10.60;53.80;;;;;;2584344;22;19919;-75
2021/01/02 04:21:27;;;;;;;;;;;10.50;54.80;;;;;;2597565;22;19926;-75
2021/01/02 04:22:30;;;;;;;;;;;10.60;54.40;;;;;;2597716;22;20089;-74
2021/01/02 04:23:32;;;;;;;;;;;10.50;54.40;;;;;;2599113;22;19923;-76
2021/01/02 04:24:34;;;;;;;;;;;10.50;55.00;;;;;;2599822;22;19919;-76
2021/01/02 04:25:38;;;;;;;;;;;10.50;54.60;;;;;;2599728;22;19965;-76
2021/01/02 04:26:39;;;;;;;;;;;10.50;54.90;;;;;;2598882;22;20359;-75
2021/01/02 04:27:41;;;;;;;;;;;10.50;54.80;;;;;;2599067;22;19927;-75
2021/01/02 04:28:42;;;;;;;;;;;10.50;54.40;;;;;;2598617;22;19930;-77
2021/01/02 04:29:43;;;;;;;;;;;10.50;53.50;;;;;;2598259;22;19926;-75
2021/01/02 04:30:45;;;;;;;;;;;10.40;55.20;;;;;;2598386;22;19919;-77
2021/01/02 04:31:47;;;;;;;;;;;10.40;55.30;;;;;;2598168;22;19934;-76
2021/01/02 04:32:49;;;;;;;;;;;10.50;55.10;;;;;;2598070;22;19985;-75
2021/01/02 04:33:51;;;;;;;;;;;10.50;55.00;;;;;;2597176;22;19923;-76
2021/01/02 04:34:53;;;;;;;;;;;10.50;54.90;;;;;;2595649;22;19984;-76
2021/01/02 04:35:54;;;;;;;;;;;10.40;54.50;;;;;;2582224;23;19926;-76
2021/01/02 04:36:56;;;;;;;;;;;10.40;55.00;;;;;;2582377;22;20392;-76
2021/01/02 04:37:59;;;;;;;;;;;10.40;55.20;;;;;;2595388;22;20364;-77
2021/01/02 04:39:02;;;;;;;;;;;10.40;53.50;;;;;;2595559;22;19949;-75
2021/01/02 04:40:04;;;;;;;;;;;10.30;55.60;;;;;;2595478;22;20364;-75
2021/01/02 04:41:07;;;;;;;;;;;10.30;55.60;;;;;;2595502;22;20313;-77
2021/01/02 04:42:08;;;;;;;;;;;10.30;55.40;;;;;;2595414;22;19919;-75
2021/01/02 04:43:10;;;;;;;;;;;10.40;55.50;;;;;;2595375;22;19919;-77
2021/01/02 04:44:11;;;;;;;;;;;10.50;55.20;;;;;;2595360;22;19943;-75
2021/01/02 04:45:13;;;;;;;;;;;10.50;55.20;;;;;;2595442;22;19920;-77
2021/01/02 04:46:14;;;;;;;;;;;10.50;55.10;;;;;;2595547;22;19919;-76
2021/01/02 04:47:17;;;;;;;;;;;10.50;55.00;;;;;;2595536;22;19919;-77
2021/01/02 04:48:19;;;;;;;;;;;10.50;55.00;;;;;;2595443;22;19919;-77
2021/01/02 04:49:20;;;;;;;;;;;10.50;54.90;;;;;;2595513;22;19920;-75
2021/01/02 04:50:23;;;;;;;;;;;10.50;55.00;;;;;;2595308;22;19919;-75
2021/01/02 04:51:24;;;;;;;;;;;10.60;54.90;;;;;;2595229;22;19919;-74
2021/01/02 04:52:26;;;;;;;;;;;10.50;54.80;;;;;;2595635;22;19919;-75
2021/01/02 04:53:29;;;;;;;;;;;10.50;54.90;;;;;;2595179;22;19919;-74
2021/01/02 04:54:33;;;;;;;;;;;10.60;55.50;;;;;;2595318;22;20241;-75
2021/01/02 04:55:39;;;;;;;;;;;10.60;54.70;;;;;;2595432;22;20023;-75
2021/01/02 04:56:40;;;;;;;;;;;10.60;54.60;;;;;;2595737;22;19926;-75
2021/01/02 04:57:44;;;;;;;;;;;10.60;54.90;;;;;;2595992;22;20277;-76
2021/01/02 04:58:46;;;;;;;;;;;10.70;54.60;;;;;;2596053;22;19919;-74
2021/01/02 04:59:48;;;;;;;;;;;10.70;54.50;;;;;;2595971;22;19919;-75
2021/01/02 05:00:52;;;;;;;;;;;10.80;54.30;;;;;;2596433;22;19919;-74
2021/01/02 05:01:54;;;;;;;;;;;10.80;54.20;;;;;;2596474;22;19919;-76
2021/01/02 05:02:57;;;;;;;;;;;10.80;54.00;;;;;;2596228;22;19919;-75
2021/01/02 05:03:59;;;;;;;;;;;10.90;53.80;;;;;;2596596;22;20351;-75
2021/01/02 05:05:01;;;;;;;;;;;10.80;53.80;;;;;;2596057;22;20049;-77
2021/01/02 05:06:03;;;;;;;;;;;10.80;53.80;;;;;;2596470;22;19922;-76
2021/01/02 05:07:04;;;;;;;;;;;10.90;53.90;;;;;;2596589;22;19919;-76
2021/01/02 05:08:06;;;;;;;;;;;10.90;53.90;;;;;;2596292;22;20337;-75
2021/01/02 05:09:07;;;;;;;;;;;10.90;53.80;;;;;;2596448;22;19919;-76
2021/01/02 05:10:10;;;;;;;;;;;11.00;53.60;;;;;;2596346;22;19926;-75
2021/01/02 05:11:12;;;;;;;;;;;10.90;53.50;;;;;;2596239;22;20253;-75
2021/01/02 05:12:22;;;;;;;;;;;11.00;53.60;;;;;;2596291;22;19927;-75
2021/01/02 05:13:28;;;;;;;;;;;11.00;53.40;;;;;;2596034;22;19926;-75
2021/01/02 05:14:29;;;;;;;;;;;11.00;53.30;;;;;;2595997;22;20268;-76
2021/01/02 05:15:31;;;;;;;;;;;11.00;53.40;;;;;;2596145;22;19919;-75
2021/01/02 05:16:37;;;;;;;;;;;11.00;53.40;;;;;;2596265;22;19923;-75
2021/01/02 05:17:40;;;;;;;;;;;11.00;53.50;;;;;;2595986;22;19946;-75
2021/01/02 05:18:51;;;;;;;;;;;10.90;53.30;;;;;;2595991;22;19919;-75
2021/01/02 05:20:00;;;;;;;;;;;11.00;53.50;;;;;;2582796;23;19931;-74
2021/01/02 05:21:05;;;;;;;;;;;10.80;53.30;;;;;;2584700;22;20352;-74
2021/01/02 05:22:22;;;;;;;;;;;10.90;52.90;;;;;;2596061;22;19923;-75
2021/01/02 05:23:24;;;;;;;;;;;10.80;53.60;;;;;;2596268;22;19919;-74
2021/01/02 05:24:25;;;;;;;;;;;11.00;53.70;;;;;;2596345;22;19920;-75
2021/01/02 05:25:27;;;;;;;;;;;11.00;53.40;;;;;;2596296;22;19919;-75
2021/01/02 05:26:29;;;;;;;;;;;11.00;53.40;;;;;;2596326;22;19920;-75
2021/01/02 05:27:31;;;;;;;;;;;11.10;53.30;;;;;;2595866;22;19926;-75
2021/01/02 05:28:34;;;;;;;;;;;11.00;53.00;;;;;;2596262;22;19986;-74
2021/01/02 05:29:36;;;;;;;;;;;11.00;52.90;;;;;;2596180;22;19919;-75
2021/01/02 05:30:38;;;;;;;;;;;11.00;53.10;;;;;;2582812;23;19927;-75
2021/01/02 05:31:40;;;;;;;;;;;11.10;53.10;;;;;;2582831;22;20297;-75
2021/01/02 05:33:08;;;;;;;;;;;11.10;53.00;;;;;;2596006;22;19926;-75
2021/01/02 05:34:10;;;;;;;;;;;11.10;53.00;;;;;;2544671;23;19927;-74
2021/01/02 05:35:18;;;;;;;;;;;11.10;53.10;;;;;;2576858;22;19926;-74
2021/01/02 05:36:20;;;;;;;;;;;11.00;52.90;;;;;;2596397;22;19927;-75
2021/01/02 05:37:22;;;;;;;;;;;11.10;53.00;;;;;;2596218;22;19919;-75
2021/01/02 05:38:24;;;;;;;;;;;11.10;52.90;;;;;;2596333;22;19919;-75
2021/01/02 05:39:34;;;;;;;;;;;11.10;52.90;;;;;;2597128;22;19919;-76
2021/01/02 05:40:38;;;;;;;;;;;11.10;52.70;;;;;;2585913;23;20123;-75
2021/01/02 05:41:46;;;;;;;;;;;11.10;52.80;;;;;;2586953;22;19920;-75
2021/01/02 05:42:49;;;;;;;;;;;11.10;52.80;;;;;;2599727;22;19926;-74
2021/01/02 05:43:51;;;;;;;;;;;11.10;52.70;;;;;;2599738;22;19943;-75
2021/01/02 05:44:57;;;;;;;;;;;11.00;52.70;;;;;;2600207;22;19923;-75
2021/01/02 05:46:05;;;;;;;;;;;11.00;52.90;;;;;;2586565;23;19920;-74
2021/01/02 05:47:06;;;;;;;;;;;11.00;52.90;;;;;;2576664;23;19927;-75
2021/01/02 05:48:13;;;;;;;;;;;11.00;52.10;;;;;;2587306;22;19920;-76
2021/01/02 05:49:27;;;;;;;;;;;11.00;53.00;;;;;;2599948;22;19920;-75
2021/01/02 05:50:29;;;;;;;;;;;11.10;52.60;;;;;;2598863;22;19938;-74
2021/01/02 05:51:32;;;;;;;;;;;11.10;52.70;;;;;;2597517;22;19919;-75
2021/01/02 05:52:34;;;;;;;;;;;11.00;52.20;;;;;;2597148;22;20233;-75
2021/01/02 05:53:36;;;;;;;;;;;11.00;52.70;;;;;;2597349;22;19919;-75
2021/01/02 05:54:40;;;;;;;;;;;11.00;53.00;;;;;;2596744;22;19920;-75
2021/01/02 05:55:43;;;;;;;;;;;11.00;52.80;;;;;;2596463;22;19931;-75
2021/01/02 05:56:46;;;;;;;;;;;11.10;52.80;;;;;;2583029;23;20281;-74
2021/01/02 05:57:47;;;;;;;;;;;11.00;52.30;;;;;;2570850;23;19927;-75
2021/01/02 05:58:49;;;;;;;;;;;11.10;52.90;;;;;;2583592;22;19943;-75
2021/01/02 05:59:52;;;;;;;;;;;11.20;52.70;;;;;;2596464;22;19947;-74
2021/01/02 06:01:01;;;;;;;;;;;11.20;52.40;;;;;;2596715;22;19920;-74
2021/01/02 06:02:22;;;;;;;;;;;11.20;52.40;;;;;;2596461;22;20256;-76
2021/01/02 06:03:25;;;;;;;;;;;11.20;52.40;;;;;;2596429;22;19986;-75
2021/01/02 06:04:28;;;;;;;;;;;11.10;52.50;;;;;;2596218;22;20253;-75
2021/01/02 06:05:29;;;;;;;;;;;11.10;52.20;;;;;;2596314;22;19926;-74
2021/01/02 06:06:30;;;;;;;;;;;11.10;52.70;;;;;;2596178;22;19927;-74
2021/01/02 06:07:33;;;;;;;;;;;11.10;52.50;;;;;;2596076;22;20161;-75
2021/01/02 06:08:39;;;;;;;;;;;11.10;52.40;;;;;;2596378;22;19919;-74
2021/01/02 06:09:41;;;;;;;;;;;11.10;52.30;;;;;;2596443;22;19919;-75
2021/01/02 06:10:43;;;;;;;;;;;11.10;52.40;;;;;;2598520;22;19930;-74
2021/01/02 06:11:49;;;;;;;;;;;11.10;52.40;;;;;;2599800;22;19919;-75
2021/01/02 06:12:51;;;;;;;;;;;11.00;52.60;;;;;;2599594;22;19920;-75
2021/01/02 06:13:53;;;;;;;;;;;11.00;52.80;;;;;;2599111;22;19926;-75
2021/01/02 06:14:56;;;;;;;;;;;11.00;52.70;;;;;;2597166;22;20043;-74
2021/01/02 06:15:58;;;;;;;;;;;11.10;52.60;;;;;;2597308;22;19939;-73
2021/01/02 06:17:05;;;;;;;;;;;11.10;52.40;;;;;;2597751;22;19945;-75